Terminal Aerodrome Forecast
Issued by NWS

Home | Current Version | Previous Version | Graphics & Text | Print | Product List | Glossary On
Versions: 1 2 3 4 5 6 7 8 9 10 11 12 13 14 15 16 17 18 19 20
000
FTUS43 KABR 030303 AAA
TAFATY
TAF AMD
KATY 030303Z 0303/0324 17011KT P6SM SKC
     FM030700 20013KT P6SM BKN250
     FM031400 30010KT P6SM BKN120 OVC250
     FM031800 35008KT 4SM BR SCT050=

USA.gov is the U.S. government's official web portal to all federal, state and local government web resources and services.